Fontana, Argentina
Current Conditions -  °F | °C
As of 2:00 PM on Thursday 27 Nov 2014 (Local Time) from SARE Reporting Station
Scattered Clouds Scattered Clouds  
Wind Chill: 88°   Ceiling: Unl
Heat Index: 90°   Visibility: 6mi
Dew Point: 66°   Wind: 3mph
Humidity: 49%   Direction: 160°SSE
Pressure: 29.91"   Gusts: NA
Location:  27.22°S, 59.29°W
Report Text: SARE 271700Z 16003KT 9999 FEW025 SCT200 31/19 Q1013
Loading
Personal Weather Stations






























Interactive Weather Map New forecast layout! Learn more

10-Day Weather Forecast

Advertisements
Track Severe Weather on mobile